sensor_id;sensor_type;location;lat;lon;timestamp;P1;durP1;ratioP1;P2;durP2;ratioP2
6342;SDS011;3204;42.698;23.298;2023-03-01T00:01:10;5.67;;;5.27;;
6342;SDS011;3204;42.698;23.298;2023-03-01T00:03:37;4.37;;;4.07;;
6342;SDS011;3204;42.698;23.298;2023-03-01T00:06:03;4.70;;;4.33;;
6342;SDS011;3204;42.698;23.298;2023-03-01T00:08:29;4.90;;;4.60;;
6342;SDS011;3204;42.698;23.298;2023-03-01T00:11:08;8.73;;;7.93;;
6342;SDS011;3204;42.698;23.298;2023-03-01T00:13:38;18.33;;;16.43;;
6342;SDS011;3204;42.698;23.298;2023-03-01T00:16:05;14.57;;;13.07;;
6342;SDS011;3204;42.698;23.298;2023-03-01T00:18:32;9.57;;;8.97;;
6342;SDS011;3204;42.698;23.298;2023-03-01T00:20:57;11.77;;;10.77;;
6342;SDS011;3204;42.698;23.298;2023-03-01T00:23:23;7.83;;;7.33;;
6342;SDS011;3204;42.698;23.298;2023-03-01T00:25:49;7.63;;;7.03;;
6342;SDS011;3204;42.698;23.298;2023-03-01T00:28:15;6.23;;;5.83;;
6342;SDS011;3204;42.698;23.298;2023-03-01T00:30:41;7.47;;;6.90;;
6342;SDS011;3204;42.698;23.298;2023-03-01T00:33:07;4.27;;;4.07;;
6342;SDS011;3204;42.698;23.298;2023-03-01T00:35:33;3.40;;;3.20;;
6342;SDS011;3204;42.698;23.298;2023-03-01T00:37:59;4.07;;;3.77;;
6342;SDS011;3204;42.698;23.298;2023-03-01T00:40:24;3.80;;;3.60;;
6342;SDS011;3204;42.698;23.298;2023-03-01T00:42:50;3.60;;;3.40;;
6342;SDS011;3204;42.698;23.298;2023-03-01T00:45:16;3.73;;;3.53;;
6342;SDS011;3204;42.698;23.298;2023-03-01T00:47:42;3.43;;;3.07;;
6342;SDS011;3204;42.698;23.298;2023-03-01T00:50:08;3.53;;;3.33;;
6342;SDS011;3204;42.698;23.298;2023-03-01T00:52:34;3.07;;;2.97;;
6342;SDS011;3204;42.698;23.298;2023-03-01T00:55:00;3.20;;;2.90;;
6342;SDS011;3204;42.698;23.298;2023-03-01T00:57:25;3.13;;;3.03;;
6342;SDS011;3204;42.698;23.298;2023-03-01T00:59:51;3.10;;;2.90;;
6342;SDS011;3204;42.698;23.298;2023-03-01T01:02:19;3.70;;;3.50;;
6342;SDS011;3204;42.698;23.298;2023-03-01T01:04:46;3.43;;;3.23;;
6342;SDS011;3204;42.698;23.298;2023-03-01T01:07:11;3.40;;;3.20;;
6342;SDS011;3204;42.698;23.298;2023-03-01T01:09:38;3.70;;;3.50;;
6342;SDS011;3204;42.698;23.298;2023-03-01T01:12:03;3.50;;;3.30;;
6342;SDS011;3204;42.698;23.298;2023-03-01T01:14:29;3.17;;;3.07;;
6342;SDS011;3204;42.698;23.298;2023-03-01T01:16:55;2.93;;;2.83;;
6342;SDS011;3204;42.698;23.298;2023-03-01T01:19:21;3.43;;;3.20;;
6342;SDS011;3204;42.698;23.298;2023-03-01T01:21:47;3.90;;;3.70;;
6342;SDS011;3204;42.698;23.298;2023-03-01T01:24:13;3.20;;;3.10;;
6342;SDS011;3204;42.698;23.298;2023-03-01T01:26:40;3.07;;;2.97;;
6342;SDS011;3204;42.698;23.298;2023-03-01T01:29:06;3.30;;;3.10;;
6342;SDS011;3204;42.698;23.298;2023-03-01T01:31:33;3.40;;;3.20;;
6342;SDS011;3204;42.698;23.298;2023-03-01T01:33:59;3.47;;;3.27;;
6342;SDS011;3204;42.698;23.298;2023-03-01T01:36:26;2.90;;;2.77;;
6342;SDS011;3204;42.698;23.298;2023-03-01T01:38:52;3.07;;;2.97;;
6342;SDS011;3204;42.698;23.298;2023-03-01T01:41:18;2.73;;;2.63;;
6342;SDS011;3204;42.698;23.298;2023-03-01T01:43:46;2.50;;;2.40;;
6342;SDS011;3204;42.698;23.298;2023-03-01T01:48:46;2.97;;;2.87;;
6342;SDS011;3204;42.698;23.298;2023-03-01T01:51:18;2.50;;;2.40;;
6342;SDS011;3204;42.698;23.298;2023-03-01T01:53:47;3.00;;;2.90;;
6342;SDS011;3204;42.698;23.298;2023-03-01T01:56:17;2.83;;;2.73;;
6342;SDS011;3204;42.698;23.298;2023-03-01T01:58:45;2.73;;;2.63;;
6342;SDS011;3204;42.698;23.298;2023-03-01T02:01:12;2.40;;;2.30;;
6342;SDS011;3204;42.698;23.298;2023-03-01T02:03:38;2.70;;;2.60;;
6342;SDS011;3204;42.698;23.298;2023-03-01T02:06:21;2.63;;;2.53;;
6342;SDS011;3204;42.698;23.298;2023-03-01T02:08:56;2.30;;;2.20;;
6342;SDS011;3204;42.698;23.298;2023-03-01T02:11:25;2.43;;;2.33;;
6342;SDS011;3204;42.698;23.298;2023-03-01T02:13:54;2.27;;;2.17;;
6342;SDS011;3204;42.698;23.298;2023-03-01T02:16:19;2.23;;;2.13;;
6342;SDS011;3204;42.698;23.298;2023-03-01T02:18:45;2.40;;;2.30;;
6342;SDS011;3204;42.698;23.298;2023-03-01T02:21:14;2.43;;;2.33;;
6342;SDS011;3204;42.698;23.298;2023-03-01T02:23:42;2.17;;;2.07;;
6342;SDS011;3204;42.698;23.298;2023-03-01T02:28:42;2.07;;;1.97;;
6342;SDS011;3204;42.698;23.298;2023-03-01T02:31:09;2.73;;;2.53;;
6342;SDS011;3204;42.698;23.298;2023-03-01T02:33:58;2.50;;;2.40;;
6342;SDS011;3204;42.698;23.298;2023-03-01T02:36:26;2.07;;;1.97;;
6342;SDS011;3204;42.698;23.298;2023-03-01T02:38:57;2.60;;;2.50;;
6342;SDS011;3204;42.698;23.298;2023-03-01T02:41:25;2.87;;;2.77;;
6342;SDS011;3204;42.698;23.298;2023-03-01T02:43:53;2.97;;;2.87;;
6342;SDS011;3204;42.698;23.298;2023-03-01T02:46:21;3.60;;;2.90;;
6342;SDS011;3204;42.698;23.298;2023-03-01T02:48:49;3.17;;;3.07;;
6342;SDS011;3204;42.698;23.298;2023-03-01T02:56:44;3.00;;;2.90;;
6342;SDS011;3204;42.698;23.298;2023-03-01T02:59:14;3.20;;;3.10;;
6342;SDS011;3204;42.698;23.298;2023-03-01T03:01:41;3.00;;;2.90;;
6342;SDS011;3204;42.698;23.298;2023-03-01T03:04:08;2.53;;;2.43;;
6342;SDS011;3204;42.698;23.298;2023-03-01T03:06:35;3.07;;;2.97;;
6342;SDS011;3204;42.698;23.298;2023-03-01T03:09:01;3.00;;;2.90;;
6342;SDS011;3204;42.698;23.298;2023-03-01T03:11:27;2.83;;;2.73;;
6342;SDS011;3204;42.698;23.298;2023-03-01T03:13:53;2.83;;;2.73;;
6342;SDS011;3204;42.698;23.298;2023-03-01T03:16:19;2.83;;;2.73;;
6342;SDS011;3204;42.698;23.298;2023-03-01T03:18:45;2.17;;;2.07;;
6342;SDS011;3204;42.698;23.298;2023-03-01T03:21:11;3.63;;;3.43;;
6342;SDS011;3204;42.698;23.298;2023-03-01T03:23:37;2.87;;;2.77;;
6342;SDS011;3204;42.698;23.298;2023-03-01T03:26:04;3.57;;;3.40;;
6342;SDS011;3204;42.698;23.298;2023-03-01T03:28:31;3.10;;;3.00;;
6342;SDS011;3204;42.698;23.298;2023-03-01T03:30:59;3.57;;;3.40;;
6342;SDS011;3204;42.698;23.298;2023-03-01T03:33:29;4.00;;;3.80;;
6342;SDS011;3204;42.698;23.298;2023-03-01T03:35:57;3.77;;;3.57;;
6342;SDS011;3204;42.698;23.298;2023-03-01T03:38:23;3.03;;;2.93;;
6342;SDS011;3204;42.698;23.298;2023-03-01T03:40:59;3.03;;;2.83;;
6342;SDS011;3204;42.698;23.298;2023-03-01T03:43:27;3.77;;;3.57;;
6342;SDS011;3204;42.698;23.298;2023-03-01T03:45:53;3.83;;;3.63;;
6342;SDS011;3204;42.698;23.298;2023-03-01T03:48:19;2.87;;;2.77;;
6342;SDS011;3204;42.698;23.298;2023-03-01T03:50:49;3.13;;;2.93;;
6342;SDS011;3204;42.698;23.298;2023-03-01T03:53:19;3.37;;;3.17;;
6342;SDS011;3204;42.698;23.298;2023-03-01T03:55:45;4.00;;;3.70;;
6342;SDS011;3204;42.698;23.298;2023-03-01T03:58:14;3.60;;;3.40;;
6342;SDS011;3204;42.698;23.298;2023-03-01T04:00:41;3.77;;;3.57;;
6342;SDS011;3204;42.698;23.298;2023-03-01T04:03:08;3.90;;;3.70;;
6342;SDS011;3204;42.698;23.298;2023-03-01T04:05:35;4.10;;;3.90;;
6342;SDS011;3204;42.698;23.298;2023-03-01T04:08:01;3.67;;;3.40;;
6342;SDS011;3204;42.698;23.298;2023-03-01T04:10:28;4.50;;;4.30;;
6342;SDS011;3204;42.698;23.298;2023-03-01T04:12:57;3.80;;;3.60;;
6342;SDS011;3204;42.698;23.298;2023-03-01T04:15:23;4.10;;;3.90;;
6342;SDS011;3204;42.698;23.298;2023-03-01T04:17:51;4.33;;;4.13;;
6342;SDS011;3204;42.698;23.298;2023-03-01T04:20:19;4.60;;;4.30;;
6342;SDS011;3204;42.698;23.298;2023-03-01T04:22:56;4.23;;;4.03;;
6342;SDS011;3204;42.698;23.298;2023-03-01T04:25:41;4.33;;;4.13;;
6342;SDS011;3204;42.698;23.298;2023-03-01T04:28:18;3.70;;;3.50;;
6342;SDS011;3204;42.698;23.298;2023-03-01T04:30:44;3.50;;;3.30;;
6342;SDS011;3204;42.698;23.298;2023-03-01T04:33:10;4.03;;;3.80;;
6342;SDS011;3204;42.698;23.298;2023-03-01T04:35:37;3.60;;;3.40;;
6342;SDS011;3204;42.698;23.298;2023-03-01T04:38:03;4.53;;;4.23;;
6342;SDS011;3204;42.698;23.298;2023-03-01T04:40:29;3.27;;;3.17;;
6342;SDS011;3204;42.698;23.298;2023-03-01T04:42:55;3.50;;;3.30;;
6342;SDS011;3204;42.698;23.298;2023-03-01T04:45:20;3.00;;;2.80;;
6342;SDS011;3204;42.698;23.298;2023-03-01T04:47:46;2.90;;;2.80;;
6342;SDS011;3204;42.698;23.298;2023-03-01T04:50:13;3.20;;;2.90;;
6342;SDS011;3204;42.698;23.298;2023-03-01T04:52:41;3.40;;;3.20;;
6342;SDS011;3204;42.698;23.298;2023-03-01T04:55:07;2.87;;;2.77;;
6342;SDS011;3204;42.698;23.298;2023-03-01T04:57:33;2.80;;;2.70;;
6342;SDS011;3204;42.698;23.298;2023-03-01T04:59:59;3.77;;;3.47;;
6342;SDS011;3204;42.698;23.298;2023-03-01T05:02:24;3.67;;;3.37;;
6342;SDS011;3204;42.698;23.298;2023-03-01T05:04:49;3.53;;;3.33;;
6342;SDS011;3204;42.698;23.298;2023-03-01T05:07:15;3.67;;;3.47;;
6342;SDS011;3204;42.698;23.298;2023-03-01T05:09:47;3.50;;;3.30;;
6342;SDS011;3204;42.698;23.298;2023-03-01T05:12:13;4.33;;;4.07;;
6342;SDS011;3204;42.698;23.298;2023-03-01T05:14:39;4.00;;;3.80;;
6342;SDS011;3204;42.698;23.298;2023-03-01T05:17:05;4.47;;;4.17;;
6342;SDS011;3204;42.698;23.298;2023-03-01T05:19:31;4.50;;;4.10;;
6342;SDS011;3204;42.698;23.298;2023-03-01T05:21:57;4.70;;;4.40;;
6342;SDS011;3204;42.698;23.298;2023-03-01T05:24:26;4.27;;;3.93;;
6342;SDS011;3204;42.698;23.298;2023-03-01T05:26:52;3.93;;;3.73;;
6342;SDS011;3204;42.698;23.298;2023-03-01T05:29:21;4.77;;;4.33;;
6342;SDS011;3204;42.698;23.298;2023-03-01T05:31:52;4.87;;;4.50;;
6342;SDS011;3204;42.698;23.298;2023-03-01T05:34:33;4.80;;;4.40;;
6342;SDS011;3204;42.698;23.298;2023-03-01T05:37:00;6.40;;;4.87;;
6342;SDS011;3204;42.698;23.298;2023-03-01T05:39:27;4.90;;;4.53;;
6342;SDS011;3204;42.698;23.298;2023-03-01T05:41:54;4.67;;;4.37;;
6342;SDS011;3204;42.698;23.298;2023-03-01T05:44:21;7.37;;;4.97;;
6342;SDS011;3204;42.698;23.298;2023-03-01T05:46:47;5.30;;;4.90;;
6342;SDS011;3204;42.698;23.298;2023-03-01T05:49:14;4.60;;;4.30;;
6342;SDS011;3204;42.698;23.298;2023-03-01T05:51:40;4.83;;;4.40;;
6342;SDS011;3204;42.698;23.298;2023-03-01T05:54:06;5.40;;;4.93;;
6342;SDS011;3204;42.698;23.298;2023-03-01T05:56:33;4.23;;;4.03;;
6342;SDS011;3204;42.698;23.298;2023-03-01T05:58:59;3.43;;;3.13;;
6342;SDS011;3204;42.698;23.298;2023-03-01T06:01:25;4.90;;;4.50;;
6342;SDS011;3204;42.698;23.298;2023-03-01T06:03:51;5.17;;;4.87;;
6342;SDS011;3204;42.698;23.298;2023-03-01T06:06:16;5.07;;;4.57;;
6342;SDS011;3204;42.698;23.298;2023-03-01T06:08:42;4.50;;;4.20;;
6342;SDS011;3204;42.698;23.298;2023-03-01T06:11:07;4.30;;;4.00;;
6342;SDS011;3204;42.698;23.298;2023-03-01T06:13:33;4.70;;;4.27;;
6342;SDS011;3204;42.698;23.298;2023-03-01T06:15:58;4.77;;;4.23;;
6342;SDS011;3204;42.698;23.298;2023-03-01T06:18:24;5.07;;;4.50;;
6342;SDS011;3204;42.698;23.298;2023-03-01T06:20:53;4.43;;;4.13;;
6342;SDS011;3204;42.698;23.298;2023-03-01T06:23:19;4.57;;;4.27;;
6342;SDS011;3204;42.698;23.298;2023-03-01T06:25:44;4.67;;;4.37;;
6342;SDS011;3204;42.698;23.298;2023-03-01T06:28:10;7.43;;;4.30;;
6342;SDS011;3204;42.698;23.298;2023-03-01T06:30:35;4.50;;;4.10;;
6342;SDS011;3204;42.698;23.298;2023-03-01T06:33:01;4.40;;;4.10;;
6342;SDS011;3204;42.698;23.298;2023-03-01T06:35:28;4.47;;;4.10;;
6342;SDS011;3204;42.698;23.298;2023-03-01T06:37:56;4.63;;;4.23;;
6342;SDS011;3204;42.698;23.298;2023-03-01T06:40:22;4.70;;;4.50;;
6342;SDS011;3204;42.698;23.298;2023-03-01T06:42:48;4.13;;;3.83;;
6342;SDS011;3204;42.698;23.298;2023-03-01T06:45:15;4.03;;;3.73;;
6342;SDS011;3204;42.698;23.298;2023-03-01T06:47:41;8.30;;;3.47;;
6342;SDS011;3204;42.698;23.298;2023-03-01T06:50:07;3.97;;;3.77;;
6342;SDS011;3204;42.698;23.298;2023-03-01T06:52:33;3.93;;;3.63;;
6342;SDS011;3204;42.698;23.298;2023-03-01T06:54:58;4.83;;;4.43;;
6342;SDS011;3204;42.698;23.298;2023-03-01T06:57:24;3.90;;;3.60;;
6342;SDS011;3204;42.698;23.298;2023-03-01T06:59:49;3.40;;;3.10;;
6342;SDS011;3204;42.698;23.298;2023-03-01T07:02:16;4.30;;;3.90;;
6342;SDS011;3204;42.698;23.298;2023-03-01T07:04:42;3.67;;;3.37;;
6342;SDS011;3204;42.698;23.298;2023-03-01T07:07:07;4.23;;;3.97;;
6342;SDS011;3204;42.698;23.298;2023-03-01T07:09:33;4.17;;;3.77;;
6342;SDS011;3204;42.698;23.298;2023-03-01T07:11:58;5.50;;;5.20;;
6342;SDS011;3204;42.698;23.298;2023-03-01T07:14:24;5.80;;;3.67;;
6342;SDS011;3204;42.698;23.298;2023-03-01T07:16:51;4.23;;;3.80;;
6342;SDS011;3204;42.698;23.298;2023-03-01T07:19:17;5.03;;;4.33;;
6342;SDS011;3204;42.698;23.298;2023-03-01T07:21:42;4.37;;;3.97;;
6342;SDS011;3204;42.698;23.298;2023-03-01T07:24:08;4.67;;;4.27;;
6342;SDS011;3204;42.698;23.298;2023-03-01T07:26:33;5.07;;;4.57;;
6342;SDS011;3204;42.698;23.298;2023-03-01T07:28:59;4.63;;;4.23;;
6342;SDS011;3204;42.698;23.298;2023-03-01T07:31:25;4.10;;;3.80;;
6342;SDS011;3204;42.698;23.298;2023-03-01T07:33:53;5.23;;;4.83;;
6342;SDS011;3204;42.698;23.298;2023-03-01T07:36:19;5.77;;;5.20;;
6342;SDS011;3204;42.698;23.298;2023-03-01T07:38:44;4.27;;;3.97;;
6342;SDS011;3204;42.698;23.298;2023-03-01T07:41:11;4.90;;;4.43;;
6342;SDS011;3204;42.698;23.298;2023-03-01T07:43:37;4.30;;;4.00;;
6342;SDS011;3204;42.698;23.298;2023-03-01T07:46:03;4.93;;;4.50;;
6342;SDS011;3204;42.698;23.298;2023-03-01T07:48:29;4.23;;;4.03;;
6342;SDS011;3204;42.698;23.298;2023-03-01T07:50:59;3.70;;;3.50;;
6342;SDS011;3204;42.698;23.298;2023-03-01T07:53:26;4.23;;;3.90;;
6342;SDS011;3204;42.698;23.298;2023-03-01T07:56:01;4.37;;;4.17;;
6342;SDS011;3204;42.698;23.298;2023-03-01T07:58:27;4.67;;;4.10;;
6342;SDS011;3204;42.698;23.298;2023-03-01T08:00:53;3.80;;;3.33;;
6342;SDS011;3204;42.698;23.298;2023-03-01T08:03:18;4.53;;;4.13;;
6342;SDS011;3204;42.698;23.298;2023-03-01T08:05:43;4.33;;;4.03;;
6342;SDS011;3204;42.698;23.298;2023-03-01T08:08:09;3.47;;;3.27;;
6342;SDS011;3204;42.698;23.298;2023-03-01T08:10:35;3.77;;;3.50;;
6342;SDS011;3204;42.698;23.298;2023-03-01T08:13:01;4.03;;;3.70;;
6342;SDS011;3204;42.698;23.298;2023-03-01T08:15:27;3.70;;;3.50;;
6342;SDS011;3204;42.698;23.298;2023-03-01T08:17:52;3.67;;;3.37;;
6342;SDS011;3204;42.698;23.298;2023-03-01T08:20:18;3.30;;;3.10;;
6342;SDS011;3204;42.698;23.298;2023-03-01T08:22:43;2.90;;;2.70;;
6342;SDS011;3204;42.698;23.298;2023-03-01T08:25:09;4.57;;;3.60;;
6342;SDS011;3204;42.698;23.298;2023-03-01T08:27:34;4.10;;;3.80;;
6342;SDS011;3204;42.698;23.298;2023-03-01T08:30:00;3.50;;;3.30;;
6342;SDS011;3204;42.698;23.298;2023-03-01T08:32:25;3.40;;;3.20;;
6342;SDS011;3204;42.698;23.298;2023-03-01T08:34:51;3.80;;;3.50;;
6342;SDS011;3204;42.698;23.298;2023-03-01T08:37:16;3.60;;;3.40;;
6342;SDS011;3204;42.698;23.298;2023-03-01T08:39:42;4.20;;;4.00;;
6342;SDS011;3204;42.698;23.298;2023-03-01T08:42:08;4.20;;;3.40;;
6342;SDS011;3204;42.698;23.298;2023-03-01T08:44:33;3.80;;;3.60;;
6342;SDS011;3204;42.698;23.298;2023-03-01T08:47:00;5.13;;;4.00;;
6342;SDS011;3204;42.698;23.298;2023-03-01T08:49:27;3.70;;;3.40;;
6342;SDS011;3204;42.698;23.298;2023-03-01T08:51:52;4.87;;;3.80;;
6342;SDS011;3204;42.698;23.298;2023-03-01T08:54:20;6.43;;;4.50;;
6342;SDS011;3204;42.698;23.298;2023-03-01T09:06:51;3.90;;;3.70;;
6342;SDS011;3204;42.698;23.298;2023-03-01T09:09:17;3.87;;;3.60;;
6342;SDS011;3204;42.698;23.298;2023-03-01T09:11:43;4.17;;;3.33;;
6342;SDS011;3204;42.698;23.298;2023-03-01T09:14:11;4.18;;;3.88;;
6342;SDS011;3204;42.698;23.298;2023-03-01T09:16:37;4.03;;;3.83;;
6342;SDS011;3204;42.698;23.298;2023-03-01T09:19:03;3.80;;;3.57;;
6342;SDS011;3204;42.698;23.298;2023-03-01T09:21:29;3.47;;;3.27;;
6342;SDS011;3204;42.698;23.298;2023-03-01T09:23:55;3.57;;;3.37;;
6342;SDS011;3204;42.698;23.298;2023-03-01T09:26:21;3.40;;;3.20;;
6342;SDS011;3204;42.698;23.298;2023-03-01T09:28:48;4.03;;;3.20;;
6342;SDS011;3204;42.698;23.298;2023-03-01T09:31:15;3.43;;;3.23;;
6342;SDS011;3204;42.698;23.298;2023-03-01T09:33:42;4.10;;;3.27;;
6342;SDS011;3204;42.698;23.298;2023-03-01T09:36:13;3.13;;;3.03;;
6342;SDS011;3204;42.698;23.298;2023-03-01T09:38:41;3.20;;;3.00;;
6342;SDS011;3204;42.698;23.298;2023-03-01T09:41:11;3.40;;;3.20;;
6342;SDS011;3204;42.698;23.298;2023-03-01T09:46:07;2.90;;;2.70;;
6342;SDS011;3204;42.698;23.298;2023-03-01T09:48:38;3.47;;;3.27;;
6342;SDS011;3204;42.698;23.298;2023-03-01T09:51:35;5.17;;;3.13;;
6342;SDS011;3204;42.698;23.298;2023-03-01T09:54:01;2.90;;;2.70;;
6342;SDS011;3204;42.698;23.298;2023-03-01T09:56:36;5.47;;;3.17;;
6342;SDS011;3204;42.698;23.298;2023-03-01T10:01:38;5.83;;;2.63;;
6342;SDS011;3204;42.698;23.298;2023-03-01T10:04:10;2.77;;;2.67;;
6342;SDS011;3204;42.698;23.298;2023-03-01T10:06:38;2.87;;;2.67;;
6342;SDS011;3204;42.698;23.298;2023-03-01T10:09:10;3.30;;;2.30;;
6342;SDS011;3204;42.698;23.298;2023-03-01T10:11:41;2.40;;;2.30;;
6342;SDS011;3204;42.698;23.298;2023-03-01T10:17:02;2.80;;;2.17;;
6342;SDS011;3204;42.698;23.298;2023-03-01T10:22:13;2.30;;;2.13;;
6342;SDS011;3204;42.698;23.298;2023-03-01T10:24:42;2.70;;;2.50;;
6342;SDS011;3204;42.698;23.298;2023-03-01T10:27:20;2.60;;;2.40;;
6342;SDS011;3204;42.698;23.298;2023-03-01T10:29:53;3.00;;;2.80;;
6342;SDS011;3204;42.698;23.298;2023-03-01T10:32:42;3.37;;;2.90;;
6342;SDS011;3204;42.698;23.298;2023-03-01T10:35:19;3.03;;;2.83;;
6342;SDS011;3204;42.698;23.298;2023-03-01T10:37:57;3.77;;;3.33;;
6342;SDS011;3204;42.698;23.298;2023-03-01T10:40:31;4.03;;;3.83;;
6342;SDS011;3204;42.698;23.298;2023-03-01T10:42:58;3.30;;;3.10;;
6342;SDS011;3204;42.698;23.298;2023-03-01T10:48:05;3.20;;;3.00;;
6342;SDS011;3204;42.698;23.298;2023-03-01T10:50:39;3.20;;;3.00;;
6342;SDS011;3204;42.698;23.298;2023-03-01T10:53:23;2.37;;;2.27;;
6342;SDS011;3204;42.698;23.298;2023-03-01T10:56:01;2.90;;;2.77;;
6342;SDS011;3204;42.698;23.298;2023-03-01T10:58:28;3.07;;;2.77;;
6342;SDS011;3204;42.698;23.298;2023-03-01T11:01:01;2.87;;;2.67;;
6342;SDS011;3204;42.698;23.298;2023-03-01T11:03:54;2.33;;;2.10;;
6342;SDS011;3204;42.698;23.298;2023-03-01T11:06:39;2.00;;;1.90;;
6342;SDS011;3204;42.698;23.298;2023-03-01T11:09:17;2.20;;;2.10;;
6342;SDS011;3204;42.698;23.298;2023-03-01T11:11:44;2.73;;;2.13;;
6342;SDS011;3204;42.698;23.298;2023-03-01T11:14:15;2.67;;;2.47;;
6342;SDS011;3204;42.698;23.298;2023-03-01T11:16:43;2.57;;;2.47;;
6342;SDS011;3204;42.698;23.298;2023-03-01T11:21:41;4.50;;;2.50;;
6342;SDS011;3204;42.698;23.298;2023-03-01T11:24:12;3.93;;;2.50;;
6342;SDS011;3204;42.698;23.298;2023-03-01T11:26:40;2.40;;;2.30;;
6342;SDS011;3204;42.698;23.298;2023-03-01T11:29:18;2.93;;;2.53;;
6342;SDS011;3204;42.698;23.298;2023-03-01T11:31:53;5.03;;;2.33;;
6342;SDS011;3204;42.698;23.298;2023-03-01T11:34:57;1.80;;;1.70;;
6342;SDS011;3204;42.698;23.298;2023-03-01T11:42:53;2.20;;;2.10;;
6342;SDS011;3204;42.698;23.298;2023-03-01T11:45:30;2.47;;;2.00;;
6342;SDS011;3204;42.698;23.298;2023-03-01T11:48:07;2.40;;;2.20;;
6342;SDS011;3204;42.698;23.298;2023-03-01T11:50:59;2.27;;;2.07;;
6342;SDS011;3204;42.698;23.298;2023-03-01T11:53:37;2.27;;;2.07;;
6342;SDS011;3204;42.698;23.298;2023-03-01T11:56:31;2.30;;;2.10;;
6342;SDS011;3204;42.698;23.298;2023-03-01T12:04:23;3.27;;;3.17;;
6342;SDS011;3204;42.698;23.298;2023-03-01T12:07:00;3.07;;;2.87;;
6342;SDS011;3204;42.698;23.298;2023-03-01T12:15:24;4.10;;;3.57;;
6342;SDS011;3204;42.698;23.298;2023-03-01T12:18:21;3.73;;;3.43;;
6342;SDS011;3204;42.698;23.298;2023-03-01T12:26:26;3.03;;;2.90;;
6342;SDS011;3204;42.698;23.298;2023-03-01T12:31:39;3.97;;;3.67;;
6342;SDS011;3204;42.698;23.298;2023-03-01T12:39:36;4.40;;;4.07;;
6342;SDS011;3204;42.698;23.298;2023-03-01T12:50:54;4.07;;;3.67;;
6342;SDS011;3204;42.698;23.298;2023-03-01T12:53:31;3.93;;;3.63;;
6342;SDS011;3204;42.698;23.298;2023-03-01T12:56:08;4.10;;;3.90;;
6342;SDS011;3204;42.698;23.298;2023-03-01T13:04:00;4.50;;;4.20;;
6342;SDS011;3204;42.698;23.298;2023-03-01T13:06:31;4.13;;;3.80;;
6342;SDS011;3204;42.698;23.298;2023-03-01T13:11:31;4.13;;;3.83;;
6342;SDS011;3204;42.698;23.298;2023-03-01T13:17:01;4.10;;;3.80;;
6342;SDS011;3204;42.698;23.298;2023-03-01T13:19:27;4.77;;;3.13;;
6342;SDS011;3204;42.698;23.298;2023-03-01T13:22:01;3.60;;;3.40;;
6342;SDS011;3204;42.698;23.298;2023-03-01T13:25:11;4.70;;;3.67;;
6342;SDS011;3204;42.698;23.298;2023-03-01T13:27:45;2.97;;;2.87;;
6342;SDS011;3204;42.698;23.298;2023-03-01T13:35:49;3.90;;;3.60;;
6342;SDS011;3204;42.698;23.298;2023-03-01T13:41:03;6.83;;;6.40;;
6342;SDS011;3204;42.698;23.298;2023-03-01T13:43:33;4.23;;;3.87;;
6342;SDS011;3204;42.698;23.298;2023-03-01T13:46:23;3.70;;;3.50;;
6342;SDS011;3204;42.698;23.298;2023-03-01T13:48:52;4.23;;;3.90;;
6342;SDS011;3204;42.698;23.298;2023-03-01T13:51:21;3.10;;;2.90;;
6342;SDS011;3204;42.698;23.298;2023-03-01T13:53:50;3.33;;;3.13;;
6342;SDS011;3204;42.698;23.298;2023-03-01T13:56:21;4.10;;;3.90;;
6342;SDS011;3204;42.698;23.298;2023-03-01T14:01:29;3.63;;;3.40;;
6342;SDS011;3204;42.698;23.298;2023-03-01T14:07:22;4.60;;;4.20;;
6342;SDS011;3204;42.698;23.298;2023-03-01T14:09:55;4.73;;;3.83;;
6342;SDS011;3204;42.698;23.298;2023-03-01T14:21:38;5.53;;;4.07;;
6342;SDS011;3204;42.698;23.298;2023-03-01T14:24:04;5.73;;;4.13;;
6342;SDS011;3204;42.698;23.298;2023-03-01T14:26:30;3.67;;;3.43;;
6342;SDS011;3204;42.698;23.298;2023-03-01T14:28:58;4.07;;;3.77;;
6342;SDS011;3204;42.698;23.298;2023-03-01T14:31:44;3.80;;;3.60;;
6342;SDS011;3204;42.698;23.298;2023-03-01T14:34:18;4.37;;;4.00;;
6342;SDS011;3204;42.698;23.298;2023-03-01T14:36:45;4.20;;;3.83;;
6342;SDS011;3204;42.698;23.298;2023-03-01T14:39:18;4.60;;;4.20;;
6342;SDS011;3204;42.698;23.298;2023-03-01T14:41:47;6.03;;;4.40;;
6342;SDS011;3204;42.698;23.298;2023-03-01T14:44:19;4.27;;;3.97;;
6342;SDS011;3204;42.698;23.298;2023-03-01T14:46:51;3.80;;;3.60;;
6342;SDS011;3204;42.698;23.298;2023-03-01T14:49:22;3.77;;;3.47;;
6342;SDS011;3204;42.698;23.298;2023-03-01T14:51:58;3.73;;;3.47;;
6342;SDS011;3204;42.698;23.298;2023-03-01T14:54:28;3.80;;;3.50;;
6342;SDS011;3204;42.698;23.298;2023-03-01T14:56:58;3.93;;;3.53;;
6342;SDS011;3204;42.698;23.298;2023-03-01T14:59:25;3.90;;;3.70;;
6342;SDS011;3204;42.698;23.298;2023-03-01T15:01:51;3.93;;;3.47;;
6342;SDS011;3204;42.698;23.298;2023-03-01T15:04:20;3.27;;;3.07;;
6342;SDS011;3204;42.698;23.298;2023-03-01T15:06:50;4.80;;;3.10;;
6342;SDS011;3204;42.698;23.298;2023-03-01T15:09:19;3.13;;;2.93;;
6342;SDS011;3204;42.698;23.298;2023-03-01T15:11:47;3.80;;;3.60;;
6342;SDS011;3204;42.698;23.298;2023-03-01T15:14:36;4.10;;;3.80;;
6342;SDS011;3204;42.698;23.298;2023-03-01T15:17:15;4.40;;;3.80;;
6342;SDS011;3204;42.698;23.298;2023-03-01T15:19:51;3.30;;;3.10;;
6342;SDS011;3204;42.698;23.298;2023-03-01T15:22:16;3.23;;;3.00;;
6342;SDS011;3204;42.698;23.298;2023-03-01T15:24:46;3.77;;;3.47;;
6342;SDS011;3204;42.698;23.298;2023-03-01T15:27:17;3.37;;;3.17;;
6342;SDS011;3204;42.698;23.298;2023-03-01T15:29:50;3.70;;;3.50;;
6342;SDS011;3204;42.698;23.298;2023-03-01T15:34:52;4.37;;;3.93;;
6342;SDS011;3204;42.698;23.298;2023-03-01T15:37:35;5.10;;;4.67;;
6342;SDS011;3204;42.698;23.298;2023-03-01T15:42:44;4.07;;;3.53;;
6342;SDS011;3204;42.698;23.298;2023-03-01T15:47:43;4.70;;;4.40;;
6342;SDS011;3204;42.698;23.298;2023-03-01T15:50:21;7.30;;;4.23;;
6342;SDS011;3204;42.698;23.298;2023-03-01T15:52:49;4.47;;;4.07;;
6342;SDS011;3204;42.698;23.298;2023-03-01T15:55:20;4.30;;;3.73;;
6342;SDS011;3204;42.698;23.298;2023-03-01T15:57:48;5.13;;;4.63;;
6342;SDS011;3204;42.698;23.298;2023-03-01T16:00:15;6.63;;;5.40;;
6342;SDS011;3204;42.698;23.298;2023-03-01T16:02:42;6.03;;;4.87;;
6342;SDS011;3204;42.698;23.298;2023-03-01T16:05:16;5.50;;;4.70;;
6342;SDS011;3204;42.698;23.298;2023-03-01T16:07:45;6.13;;;4.53;;
6342;SDS011;3204;42.698;23.298;2023-03-01T16:10:10;8.23;;;4.27;;
6342;SDS011;3204;42.698;23.298;2023-03-01T16:12:36;7.10;;;4.43;;
6342;SDS011;3204;42.698;23.298;2023-03-01T16:15:04;7.00;;;4.43;;
6342;SDS011;3204;42.698;23.298;2023-03-01T16:17:30;4.67;;;4.37;;
6342;SDS011;3204;42.698;23.298;2023-03-01T16:19:55;3.97;;;3.57;;
6342;SDS011;3204;42.698;23.298;2023-03-01T16:22:21;3.53;;;3.27;;
6342;SDS011;3204;42.698;23.298;2023-03-01T16:24:49;4.43;;;4.13;;
6342;SDS011;3204;42.698;23.298;2023-03-01T16:27:15;5.00;;;4.23;;
6342;SDS011;3204;42.698;23.298;2023-03-01T16:29:41;7.47;;;4.57;;
6342;SDS011;3204;42.698;23.298;2023-03-01T16:32:06;4.17;;;3.87;;
6342;SDS011;3204;42.698;23.298;2023-03-01T16:34:31;4.47;;;3.80;;
6342;SDS011;3204;42.698;23.298;2023-03-01T16:36:57;5.00;;;4.47;;
6342;SDS011;3204;42.698;23.298;2023-03-01T16:39:22;4.37;;;4.07;;
6342;SDS011;3204;42.698;23.298;2023-03-01T16:41:48;4.40;;;4.10;;
6342;SDS011;3204;42.698;23.298;2023-03-01T16:44:14;4.57;;;4.17;;
6342;SDS011;3204;42.698;23.298;2023-03-01T16:46:39;5.33;;;4.20;;
6342;SDS011;3204;42.698;23.298;2023-03-01T16:49:06;9.60;;;7.20;;
6342;SDS011;3204;42.698;23.298;2023-03-01T16:51:32;5.90;;;5.40;;
6342;SDS011;3204;42.698;23.298;2023-03-01T16:53:59;4.63;;;4.23;;
6342;SDS011;3204;42.698;23.298;2023-03-01T16:56:25;7.53;;;5.70;;
6342;SDS011;3204;42.698;23.298;2023-03-01T16:58:50;7.07;;;5.43;;
6342;SDS011;3204;42.698;23.298;2023-03-01T17:01:17;5.20;;;4.47;;
6342;SDS011;3204;42.698;23.298;2023-03-01T17:03:44;6.80;;;4.57;;
6342;SDS011;3204;42.698;23.298;2023-03-01T17:06:15;5.03;;;4.63;;
6342;SDS011;3204;42.698;23.298;2023-03-01T17:08:41;7.17;;;5.40;;